Nearby METAR Reports

 

KBVO - Bartlesville, Oklahoma, USA
Distance from station: WNW 10mi, 16km
Updated: Tue, 20-Aug-2019 3:53pm CDT
Clear
Clear
 Wind from SSW
Wind: SSW 8 mph , 13 km/h
Temperature: 97°F , 36°C
Heat Index: 108°F , 42°C
Dew Point: 73°F , 23°C
Humidity: 47%
Barometer: 29.97 inHg , 1014.9 hPa
Clouds: Clear
Visibility: 10 miles , 16 km
2019/08/20 20:53 KBVO 202053Z AUTO 20007KT 150V230 10SM CLR 36/23 A2997 RMK AO2 SLP134 T03610228 58009
KCFV - Coffeyville, Kansas, USA
Distance from station: NNE 31mi, 49km
Updated: Tue, 20-Aug-2019 3:52pm CDT
Clear
Clear
 Wind from S
Wind: S 8 mph , 13 km/h
Temperature: 93°F , 34°C
Heat Index: 107°F , 42°C
Dew Point: 77°F , 25°C
Humidity: 59%
Barometer: 29.97 inHg , 1014.9 hPa
Clouds: Clear
Visibility: 10 miles , 16 km
2019/08/20 20:52 KCFV 202052Z AUTO 17007KT 10SM CLR 34/25 A2997 RMK AO2 SLP138 T03440250 58006
 
KIDP - Independence, Kansas, USA
Distance from station: N 32mi, 52km
Updated: Tue, 20-Aug-2019 4:15pm CDT
Clear
Clear
 Wind from S
Wind: S 10 mph , 17 km/h
Temperature: 95°F , 35°C
Heat Index: 110°F , 43°C
Dew Point: 77°F , 25°C
Humidity: 56%
Barometer: 29.97 inHg , 1014.9 hPa
Clouds: Clear
Visibility: 7 miles , 11 km
2019/08/20 21:15 KIDP 202115Z AUTO 17009KT 7SM CLR 35/25 A2997 RMK AO2 T03480247
KGCM - Claremore, Oklahoma, USA
Distance from station: SE 35mi, 56km
Updated: Tue, 20-Aug-2019 4:35pm CDT
Clear
Clear
 Wind from S
Wind: S 7 mph , 11 km/h
Temperature: 95°F , 35°C
Heat Index: 103°F , 39°C
Dew Point: 72°F , 22°C
Humidity: 47%
Barometer: 29.97 inHg , 1014.9 hPa
Clouds: Clear
Visibility: 10 miles , 16 km
2019/08/20 21:35 KGCM 202135Z AUTO 18006KT 10SM CLR 35/22 A2997 RMK AO2
 
KTUL - Tulsa, Oklahoma, USA
Distance from station: S 35mi, 56km
Updated: Tue, 20-Aug-2019 3:53pm CDT
Few Clouds
Few Clouds
 Wind from S
Wind: S 9 mph , 15 km/h
Temperature: 100°F , 38°C
Heat Index: 109°F , 43°C
Dew Point: 72°F , 22°C
Humidity: 40%
Barometer: 29.94 inHg , 1013.9 hPa
Clouds: Few Clouds
Visibility: 10 miles , 16 km
Cloud details: Few Clouds 5000 ft
Few Clouds 20000 ft
2019/08/20 20:53 KTUL 202053Z 18008KT 10SM FEW050 FEW200 38/22 A2994 RMK AO2 SLP127 T03780217 58014
KRVS - Tulsa, Oklahoma, USA
Distance from station: S 46mi, 74km
Updated: Tue, 20-Aug-2019 3:53pm CDT
Clear
Clear
 Wind from SSW
Wind: SSW 9 mph , 15 km/h
Temperature: 99°F , 37°C
Heat Index: 109°F , 43°C
Dew Point: 72°F , 22°C
Humidity: 42%
Barometer: 29.95 inHg , 1014.2 hPa
Clouds: Clear
Visibility: 10 miles , 16 km
2019/08/20 20:53 KRVS 202053Z 21008KT 10SM CLR 37/22 A2995 RMK AO2 SLP142 T03720217 58014
 
KPPF - Parsons, Kansas, USA
Distance from station: NNE 48mi, 76km
Updated: Tue, 20-Aug-2019 3:52pm CDT
Clear
Clear
 Wind from varies
Wind: varies 7 mph , 11 km/h
Temperature: 93°F , 34°C
Heat Index: 110°F , 43°C
Dew Point: 79°F , 26°C
Humidity: 63%
Barometer: 30.00 inHg , 1015.9 hPa
Clouds: Clear
Visibility: 10 miles , 16 km
2019/08/20 20:52 KPPF 202052Z AUTO VRB06KT 10SM CLR 34/26 A3000 RMK AO2 SLP146 T03440256 58004
KGMJ - Grove, Oklahoma, USA
Distance from station: E 63mi, 101km
Updated: Tue, 20-Aug-2019 4:35pm CDT
Clear
Clear
 Wind from SSW
Wind: SSW 5 mph , 7 km/h
Temperature: 95°F , 35°C
Heat Index: 103°F , 39°C
Dew Point: 72°F , 22°C
Humidity: 47%
Barometer: 30.00 inHg , 1015.9 hPa
Clouds: Clear
2019/08/20 21:35 KGMJ 202135Z AUTO 20004KT CLR 35/22 A3000 RMK AO2 PWINO
 
KPNC - Ponca City, Oklahoma, USA
Distance from station: W 69mi, 111km
Updated: Tue, 20-Aug-2019 3:53pm CDT
Clear
Clear
 Wind from S
Wind: S 13 mph , 20 km/h, Gust: 18 mph , 30 km/h
Temperature: 99°F , 37°C
Dew Point: 70°F , 21°C
Humidity: 39%
Barometer: 29.94 inHg , 1013.9 hPa
Clouds: Clear
Visibility: 10 miles , 16 km
2019/08/20 20:53 KPNC 202053Z AUTO 17011G16KT 10SM CLR 37/21 A2994 RMK AO2 SLP121 T03720211 58014
KCNU - Chanute, Kansas, USA
Distance from station: NNE 69mi, 112km
Updated: Tue, 20-Aug-2019 3:52pm CDT
Clear
Clear
 Wind from S
Wind: S 10 mph , 17 km/h
Temperature: 97°F , 36°C
Heat Index: 110°F , 43°C
Dew Point: 75°F , 24°C
Humidity: 50%
Barometer: 29.99 inHg , 1015.6 hPa
Clouds: Clear
Visibility: 10 miles , 16 km
2019/08/20 20:52 KCNU 202052Z AUTO 17009KT 10SM CLR 36/24 A2999 RMK AO2 SLP141 T03560239 58004